Rockwood, Maine
Current Conditions -  °F | °C
As of 2:01 AM on Monday 22 Dec 2014 (Local Time) from KMLT Reporting Station
Overcast Overcast  
Wind Chill: -3°   Ceiling: 400
Heat Index: -3°   Visibility: 10mi
Dew Point: -4°   Wind: 3mph
Humidity: 92%   Direction: 70°ENE
Pressure: 30.4"   Gusts: NA
Location:  45.68°N, 69.74°W
Report Text: KMLT 220701Z AUTO 07003KT 10SM OVC004 M03/M04 A3040 RMK AO2 T10281039
Loading
Personal Weather Stations






























Interactive Weather Map New forecast layout! Learn more

10-Day Weather Forecast

Advertisements
Track Severe Weather on mobile